sensor_id;sensor_type;location;lat;lon;timestamp;P1;durP1;ratioP1;P2;durP2;ratioP2
74059;SDS011;62414;53.436;8.828;2023-05-23T00:01:13;44.80;;;22.03;;
74059;SDS011;62414;53.436;8.828;2023-05-23T00:03:39;44.45;;;21.70;;
74059;SDS011;62414;53.436;8.828;2023-05-23T00:06:05;42.73;;;21.43;;
74059;SDS011;62414;53.436;8.828;2023-05-23T00:08:31;45.05;;;20.58;;
74059;SDS011;62414;53.436;8.828;2023-05-23T00:10:56;40.93;;;20.67;;
74059;SDS011;62414;53.436;8.828;2023-05-23T00:13:22;40.38;;;20.05;;
74059;SDS011;62414;53.436;8.828;2023-05-23T00:15:47;40.90;;;20.53;;
74059;SDS011;62414;53.436;8.828;2023-05-23T00:18:14;40.87;;;20.63;;
74059;SDS011;62414;53.436;8.828;2023-05-23T00:20:40;41.00;;;19.98;;
74059;SDS011;62414;53.436;8.828;2023-05-23T00:23:05;41.47;;;20.48;;
74059;SDS011;62414;53.436;8.828;2023-05-23T00:25:31;40.97;;;21.40;;
74059;SDS011;62414;53.436;8.828;2023-05-23T00:27:56;45.83;;;21.13;;
74059;SDS011;62414;53.436;8.828;2023-05-23T00:30:22;43.20;;;21.57;;
74059;SDS011;62414;53.436;8.828;2023-05-23T00:32:47;47.67;;;22.40;;
74059;SDS011;62414;53.436;8.828;2023-05-23T00:35:14;42.00;;;21.63;;
74059;SDS011;62414;53.436;8.828;2023-05-23T00:37:39;42.83;;;20.67;;
74059;SDS011;62414;53.436;8.828;2023-05-23T00:40:05;49.40;;;22.02;;
74059;SDS011;62414;53.436;8.828;2023-05-23T00:42:32;46.17;;;21.30;;
74059;SDS011;62414;53.436;8.828;2023-05-23T00:44:57;45.88;;;20.60;;
74059;SDS011;62414;53.436;8.828;2023-05-23T00:47:22;47.37;;;21.77;;
74059;SDS011;62414;53.436;8.828;2023-05-23T00:49:48;48.67;;;22.30;;
74059;SDS011;62414;53.436;8.828;2023-05-23T00:52:15;46.17;;;21.92;;
74059;SDS011;62414;53.436;8.828;2023-05-23T00:54:41;46.80;;;22.20;;
74059;SDS011;62414;53.436;8.828;2023-05-23T00:57:07;56.70;;;22.27;;
74059;SDS011;62414;53.436;8.828;2023-05-23T00:59:33;47.33;;;21.80;;
74059;SDS011;62414;53.436;8.828;2023-05-23T01:02:00;51.40;;;22.77;;
74059;SDS011;62414;53.436;8.828;2023-05-23T01:04:25;48.20;;;21.97;;
74059;SDS011;62414;53.436;8.828;2023-05-23T01:06:51;46.80;;;20.37;;
74059;SDS011;62414;53.436;8.828;2023-05-23T01:09:18;47.90;;;21.48;;
74059;SDS011;62414;53.436;8.828;2023-05-23T01:11:49;49.17;;;21.48;;
74059;SDS011;62414;53.436;8.828;2023-05-23T01:14:21;53.50;;;21.93;;
74059;SDS011;62414;53.436;8.828;2023-05-23T01:16:52;52.30;;;21.63;;
74059;SDS011;62414;53.436;8.828;2023-05-23T01:19:34;56.65;;;23.65;;
74059;SDS011;62414;53.436;8.828;2023-05-23T01:22:11;52.65;;;23.17;;
74059;SDS011;62414;53.436;8.828;2023-05-23T01:24:43;56.17;;;23.98;;
74059;SDS011;62414;53.436;8.828;2023-05-23T01:27:15;55.00;;;23.60;;
74059;SDS011;62414;53.436;8.828;2023-05-23T01:29:50;56.45;;;22.85;;
74059;SDS011;62414;53.436;8.828;2023-05-23T01:32:18;55.72;;;23.80;;
74059;SDS011;62414;53.436;8.828;2023-05-23T01:34:45;57.47;;;23.45;;
74059;SDS011;62414;53.436;8.828;2023-05-23T01:37:12;55.25;;;23.33;;
74059;SDS011;62414;53.436;8.828;2023-05-23T01:39:38;54.70;;;23.33;;
74059;SDS011;62414;53.436;8.828;2023-05-23T01:42:03;61.63;;;25.35;;
74059;SDS011;62414;53.436;8.828;2023-05-23T01:44:31;56.28;;;23.60;;
74059;SDS011;62414;53.436;8.828;2023-05-23T01:46:58;54.80;;;23.10;;
74059;SDS011;62414;53.436;8.828;2023-05-23T01:49:24;53.13;;;23.30;;
74059;SDS011;62414;53.436;8.828;2023-05-23T01:51:51;53.70;;;23.17;;
74059;SDS011;62414;53.436;8.828;2023-05-23T01:54:16;63.67;;;24.63;;
74059;SDS011;62414;53.436;8.828;2023-05-23T01:56:42;56.17;;;23.67;;
74059;SDS011;62414;53.436;8.828;2023-05-23T01:59:07;55.70;;;23.37;;
74059;SDS011;62414;53.436;8.828;2023-05-23T02:01:34;54.20;;;22.60;;
74059;SDS011;62414;53.436;8.828;2023-05-23T02:04:01;52.35;;;22.33;;
74059;SDS011;62414;53.436;8.828;2023-05-23T02:06:26;55.00;;;22.37;;
74059;SDS011;62414;53.436;8.828;2023-05-23T02:08:52;52.63;;;22.27;;
74059;SDS011;62414;53.436;8.828;2023-05-23T02:11:17;50.90;;;22.63;;
74059;SDS011;62414;53.436;8.828;2023-05-23T02:13:42;51.17;;;22.13;;
74059;SDS011;62414;53.436;8.828;2023-05-23T02:16:08;53.80;;;22.95;;
74059;SDS011;62414;53.436;8.828;2023-05-23T02:18:33;51.17;;;21.80;;
74059;SDS011;62414;53.436;8.828;2023-05-23T02:21:01;52.58;;;22.52;;
74059;SDS011;62414;53.436;8.828;2023-05-23T02:23:26;53.00;;;22.03;;
74059;SDS011;62414;53.436;8.828;2023-05-23T02:25:52;45.75;;;21.65;;
74059;SDS011;62414;53.436;8.828;2023-05-23T02:28:17;50.10;;;21.57;;
74059;SDS011;62414;53.436;8.828;2023-05-23T02:30:42;57.23;;;23.60;;
74059;SDS011;62414;53.436;8.828;2023-05-23T02:33:09;51.78;;;21.95;;
74059;SDS011;62414;53.436;8.828;2023-05-23T02:35:35;52.53;;;22.67;;
74059;SDS011;62414;53.436;8.828;2023-05-23T02:38:01;52.33;;;23.03;;
74059;SDS011;62414;53.436;8.828;2023-05-23T02:40:27;58.95;;;23.08;;
74059;SDS011;62414;53.436;8.828;2023-05-23T02:42:53;52.17;;;23.13;;
74059;SDS011;62414;53.436;8.828;2023-05-23T02:45:19;53.85;;;22.35;;
74059;SDS011;62414;53.436;8.828;2023-05-23T02:47:45;56.85;;;23.40;;
74059;SDS011;62414;53.436;8.828;2023-05-23T02:50:11;58.30;;;23.33;;
74059;SDS011;62414;53.436;8.828;2023-05-23T02:52:36;55.05;;;23.02;;
74059;SDS011;62414;53.436;8.828;2023-05-23T02:55:04;56.83;;;23.27;;
74059;SDS011;62414;53.436;8.828;2023-05-23T02:57:36;52.35;;;23.20;;
74059;SDS011;62414;53.436;8.828;2023-05-23T03:00:02;55.43;;;23.37;;
74059;SDS011;62414;53.436;8.828;2023-05-23T03:02:28;56.05;;;24.20;;
74059;SDS011;62414;53.436;8.828;2023-05-23T03:04:53;55.60;;;23.77;;
74059;SDS011;62414;53.436;8.828;2023-05-23T03:07:19;57.30;;;23.65;;
74059;SDS011;62414;53.436;8.828;2023-05-23T03:09:44;51.30;;;24.20;;
74059;SDS011;62414;53.436;8.828;2023-05-23T03:12:11;60.33;;;24.87;;
74059;SDS011;62414;53.436;8.828;2023-05-23T03:14:36;58.38;;;24.55;;
74059;SDS011;62414;53.436;8.828;2023-05-23T03:17:02;56.50;;;23.90;;
74059;SDS011;62414;53.436;8.828;2023-05-23T03:19:28;54.83;;;23.70;;
74059;SDS011;62414;53.436;8.828;2023-05-23T03:21:53;54.67;;;23.77;;
74059;SDS011;62414;53.436;8.828;2023-05-23T03:24:19;66.55;;;24.20;;
74059;SDS011;62414;53.436;8.828;2023-05-23T03:26:44;59.13;;;24.10;;
74059;SDS011;62414;53.436;8.828;2023-05-23T03:29:12;63.10;;;25.17;;
74059;SDS011;62414;53.436;8.828;2023-05-23T03:31:37;70.63;;;27.02;;
74059;SDS011;62414;53.436;8.828;2023-05-23T03:34:03;70.50;;;28.40;;
74059;SDS011;62414;53.436;8.828;2023-05-23T03:36:28;81.05;;;29.05;;
74059;SDS011;62414;53.436;8.828;2023-05-23T03:38:54;76.20;;;28.13;;
74059;SDS011;62414;53.436;8.828;2023-05-23T03:41:19;69.37;;;27.20;;
74059;SDS011;62414;53.436;8.828;2023-05-23T03:43:45;77.72;;;27.13;;
74059;SDS011;62414;53.436;8.828;2023-05-23T03:46:12;80.53;;;26.37;;
74059;SDS011;62414;53.436;8.828;2023-05-23T03:48:40;65.30;;;23.85;;
74059;SDS011;62414;53.436;8.828;2023-05-23T03:51:06;62.43;;;23.77;;
74059;SDS011;62414;53.436;8.828;2023-05-23T03:53:31;60.05;;;22.45;;
74059;SDS011;62414;53.436;8.828;2023-05-23T03:55:57;63.47;;;22.50;;
74059;SDS011;62414;53.436;8.828;2023-05-23T03:58:24;74.28;;;23.95;;
74059;SDS011;62414;53.436;8.828;2023-05-23T04:00:54;61.28;;;22.17;;
74059;SDS011;62414;53.436;8.828;2023-05-23T04:03:21;65.18;;;22.25;;
74059;SDS011;62414;53.436;8.828;2023-05-23T04:05:48;57.20;;;21.23;;
74059;SDS011;62414;53.436;8.828;2023-05-23T04:08:14;52.03;;;21.42;;
74059;SDS011;62414;53.436;8.828;2023-05-23T04:10:40;54.88;;;20.00;;
74059;SDS011;62414;53.436;8.828;2023-05-23T04:13:05;50.53;;;20.30;;
74059;SDS011;62414;53.436;8.828;2023-05-23T04:15:31;51.95;;;21.00;;
74059;SDS011;62414;53.436;8.828;2023-05-23T04:18:02;51.77;;;19.77;;
74059;SDS011;62414;53.436;8.828;2023-05-23T04:20:29;47.97;;;19.75;;
74059;SDS011;62414;53.436;8.828;2023-05-23T04:22:54;49.97;;;21.50;;
74059;SDS011;62414;53.436;8.828;2023-05-23T04:25:20;45.73;;;20.90;;
74059;SDS011;62414;53.436;8.828;2023-05-23T04:28:09;45.30;;;21.08;;
74059;SDS011;62414;53.436;8.828;2023-05-23T04:30:35;47.42;;;20.80;;
74059;SDS011;62414;53.436;8.828;2023-05-23T04:33:01;48.83;;;20.27;;
74059;SDS011;62414;53.436;8.828;2023-05-23T04:35:29;50.05;;;22.05;;
74059;SDS011;62414;53.436;8.828;2023-05-23T04:37:54;52.67;;;21.60;;
74059;SDS011;62414;53.436;8.828;2023-05-23T04:40:20;53.73;;;23.03;;
74059;SDS011;62414;53.436;8.828;2023-05-23T04:43:00;58.87;;;21.97;;
74059;SDS011;62414;53.436;8.828;2023-05-23T04:45:52;52.88;;;22.13;;
74059;SDS011;62414;53.436;8.828;2023-05-23T04:48:46;56.35;;;22.58;;
74059;SDS011;62414;53.436;8.828;2023-05-23T04:51:13;63.33;;;23.50;;
74059;SDS011;62414;53.436;8.828;2023-05-23T04:53:46;53.08;;;22.42;;
74059;SDS011;62414;53.436;8.828;2023-05-23T04:56:12;54.00;;;21.40;;
74059;SDS011;62414;53.436;8.828;2023-05-23T04:58:38;49.83;;;21.70;;
74059;SDS011;62414;53.436;8.828;2023-05-23T05:01:05;48.58;;;20.67;;
74059;SDS011;62414;53.436;8.828;2023-05-23T05:03:31;52.83;;;20.53;;
74059;SDS011;62414;53.436;8.828;2023-05-23T05:05:57;48.58;;;19.90;;
74059;SDS011;62414;53.436;8.828;2023-05-23T05:08:23;47.40;;;19.30;;
74059;SDS011;62414;53.436;8.828;2023-05-23T05:10:49;50.88;;;18.83;;
74059;SDS011;62414;53.436;8.828;2023-05-23T05:13:17;44.90;;;19.02;;
74059;SDS011;62414;53.436;8.828;2023-05-23T05:15:47;43.22;;;17.98;;
74059;SDS011;62414;53.436;8.828;2023-05-23T05:18:12;41.63;;;17.10;;
74059;SDS011;62414;53.436;8.828;2023-05-23T05:20:39;43.10;;;16.75;;
74059;SDS011;62414;53.436;8.828;2023-05-23T05:23:04;37.83;;;14.53;;
74059;SDS011;62414;53.436;8.828;2023-05-23T05:25:31;41.78;;;13.95;;
74059;SDS011;62414;53.436;8.828;2023-05-23T05:27:57;30.70;;;12.90;;
74059;SDS011;62414;53.436;8.828;2023-05-23T05:30:23;36.58;;;12.90;;
74059;SDS011;62414;53.436;8.828;2023-05-23T05:32:53;28.73;;;12.27;;
74059;SDS011;62414;53.436;8.828;2023-05-23T05:35:19;27.35;;;11.00;;
74059;SDS011;62414;53.436;8.828;2023-05-23T05:37:45;25.73;;;10.70;;
74059;SDS011;62414;53.436;8.828;2023-05-23T05:40:12;24.80;;;10.65;;
74059;SDS011;62414;53.436;8.828;2023-05-23T05:42:41;25.15;;;9.95;;
74059;SDS011;62414;53.436;8.828;2023-05-23T05:45:08;23.20;;;9.43;;
74059;SDS011;62414;53.436;8.828;2023-05-23T05:47:35;20.35;;;8.80;;
74059;SDS011;62414;53.436;8.828;2023-05-23T05:50:01;21.50;;;8.17;;
74059;SDS011;62414;53.436;8.828;2023-05-23T05:52:26;15.97;;;6.77;;
74059;SDS011;62414;53.436;8.828;2023-05-23T05:54:52;20.48;;;6.88;;
74059;SDS011;62414;53.436;8.828;2023-05-23T05:57:18;20.15;;;6.60;;
74059;SDS011;62414;53.436;8.828;2023-05-23T05:59:45;15.67;;;5.87;;
74059;SDS011;62414;53.436;8.828;2023-05-23T06:02:11;18.05;;;6.38;;
74059;SDS011;62414;53.436;8.828;2023-05-23T06:04:36;21.63;;;6.43;;
74059;SDS011;62414;53.436;8.828;2023-05-23T06:07:02;18.00;;;6.20;;
74059;SDS011;62414;53.436;8.828;2023-05-23T06:09:28;17.85;;;5.90;;
74059;SDS011;62414;53.436;8.828;2023-05-23T06:11:53;17.30;;;5.40;;
74059;SDS011;62414;53.436;8.828;2023-05-23T06:14:19;22.48;;;6.45;;
74059;SDS011;62414;53.436;8.828;2023-05-23T06:16:47;19.73;;;5.90;;
74059;SDS011;62414;53.436;8.828;2023-05-23T06:19:13;19.10;;;5.85;;
74059;SDS011;62414;53.436;8.828;2023-05-23T06:21:39;17.35;;;5.45;;
74059;SDS011;62414;53.436;8.828;2023-05-23T06:24:07;20.03;;;4.83;;
74059;SDS011;62414;53.436;8.828;2023-05-23T06:26:33;21.33;;;5.18;;
74059;SDS011;62414;53.436;8.828;2023-05-23T06:28:58;13.87;;;4.80;;
74059;SDS011;62414;53.436;8.828;2023-05-23T06:31:24;17.93;;;5.80;;
74059;SDS011;62414;53.436;8.828;2023-05-23T06:33:50;13.70;;;4.67;;
74059;SDS011;62414;53.436;8.828;2023-05-23T06:36:16;16.83;;;4.93;;
74059;SDS011;62414;53.436;8.828;2023-05-23T06:38:41;18.90;;;4.90;;
74059;SDS011;62414;53.436;8.828;2023-05-23T06:41:07;16.40;;;4.60;;
74059;SDS011;62414;53.436;8.828;2023-05-23T06:43:34;15.55;;;3.88;;
74059;SDS011;62414;53.436;8.828;2023-05-23T06:46:12;17.85;;;4.10;;
74059;SDS011;62414;53.436;8.828;2023-05-23T06:48:37;16.50;;;4.00;;
74059;SDS011;62414;53.436;8.828;2023-05-23T06:51:04;12.07;;;3.27;;
74059;SDS011;62414;53.436;8.828;2023-05-23T06:53:30;15.65;;;4.18;;
74059;SDS011;62414;53.436;8.828;2023-05-23T06:55:56;12.30;;;3.15;;
74059;SDS011;62414;53.436;8.828;2023-05-23T06:58:21;13.87;;;3.13;;
74059;SDS011;62414;53.436;8.828;2023-05-23T07:00:47;13.33;;;3.13;;
74059;SDS011;62414;53.436;8.828;2023-05-23T07:03:34;15.27;;;3.33;;
74059;SDS011;62414;53.436;8.828;2023-05-23T07:06:05;14.13;;;3.00;;
74059;SDS011;62414;53.436;8.828;2023-05-23T07:08:32;15.38;;;2.97;;
74059;SDS011;62414;53.436;8.828;2023-05-23T07:10:58;17.38;;;3.10;;
74059;SDS011;62414;53.436;8.828;2023-05-23T07:13:30;15.53;;;3.00;;
74059;SDS011;62414;53.436;8.828;2023-05-23T07:15:56;12.75;;;2.97;;
74059;SDS011;62414;53.436;8.828;2023-05-23T07:18:22;14.37;;;3.10;;
74059;SDS011;62414;53.436;8.828;2023-05-23T07:20:47;12.18;;;2.80;;
74059;SDS011;62414;53.436;8.828;2023-05-23T07:23:17;12.98;;;2.88;;
74059;SDS011;62414;53.436;8.828;2023-05-23T07:25:43;13.70;;;2.93;;
74059;SDS011;62414;53.436;8.828;2023-05-23T07:28:18;16.35;;;2.92;;
74059;SDS011;62414;53.436;8.828;2023-05-23T07:30:44;12.88;;;3.33;;
74059;SDS011;62414;53.436;8.828;2023-05-23T07:33:10;17.65;;;3.50;;
74059;SDS011;62414;53.436;8.828;2023-05-23T07:35:36;15.00;;;3.17;;
74059;SDS011;62414;53.436;8.828;2023-05-23T07:38:02;15.52;;;3.28;;
74059;SDS011;62414;53.436;8.828;2023-05-23T07:40:29;13.73;;;2.92;;
74059;SDS011;62414;53.436;8.828;2023-05-23T07:42:54;14.13;;;3.15;;
74059;SDS011;62414;53.436;8.828;2023-05-23T07:45:20;12.60;;;2.83;;
74059;SDS011;62414;53.436;8.828;2023-05-23T07:47:46;13.23;;;3.25;;
74059;SDS011;62414;53.436;8.828;2023-05-23T07:50:12;11.65;;;3.22;;
74059;SDS011;62414;53.436;8.828;2023-05-23T07:52:37;13.20;;;3.17;;
74059;SDS011;62414;53.436;8.828;2023-05-23T07:55:05;13.63;;;3.38;;
74059;SDS011;62414;53.436;8.828;2023-05-23T07:57:33;19.67;;;3.50;;
74059;SDS011;62414;53.436;8.828;2023-05-23T07:59:58;14.50;;;3.33;;
74059;SDS011;62414;53.436;8.828;2023-05-23T08:02:26;17.27;;;4.05;;
74059;SDS011;62414;53.436;8.828;2023-05-23T08:04:51;17.73;;;3.63;;
74059;SDS011;62414;53.436;8.828;2023-05-23T08:07:17;15.77;;;4.03;;
74059;SDS011;62414;53.436;8.828;2023-05-23T08:09:47;15.80;;;3.47;;
74059;SDS011;62414;53.436;8.828;2023-05-23T08:12:16;14.40;;;3.38;;
74059;SDS011;62414;53.436;8.828;2023-05-23T08:14:46;18.95;;;3.22;;
74059;SDS011;62414;53.436;8.828;2023-05-23T08:17:18;20.20;;;3.00;;
74059;SDS011;62414;53.436;8.828;2023-05-23T08:19:44;17.10;;;3.00;;
74059;SDS011;62414;53.436;8.828;2023-05-23T08:22:10;19.58;;;3.33;;
74059;SDS011;62414;53.436;8.828;2023-05-23T08:24:36;14.77;;;2.93;;
74059;SDS011;62414;53.436;8.828;2023-05-23T08:27:02;13.48;;;3.05;;
74059;SDS011;62414;53.436;8.828;2023-05-23T08:29:29;13.27;;;2.53;;
74059;SDS011;62414;53.436;8.828;2023-05-23T08:31:56;15.93;;;2.77;;
74059;SDS011;62414;53.436;8.828;2023-05-23T08:34:22;15.35;;;2.47;;
74059;SDS011;62414;53.436;8.828;2023-05-23T08:36:48;16.95;;;2.53;;
74059;SDS011;62414;53.436;8.828;2023-05-23T08:39:18;13.67;;;2.67;;
74059;SDS011;62414;53.436;8.828;2023-05-23T08:41:50;13.05;;;2.53;;
74059;SDS011;62414;53.436;8.828;2023-05-23T08:44:16;12.82;;;2.30;;
74059;SDS011;62414;53.436;8.828;2023-05-23T08:46:48;16.63;;;3.00;;
74059;SDS011;62414;53.436;8.828;2023-05-23T08:49:32;13.98;;;2.55;;
74059;SDS011;62414;53.436;8.828;2023-05-23T08:52:00;15.27;;;2.47;;
74059;SDS011;62414;53.436;8.828;2023-05-23T08:54:26;13.70;;;3.05;;
74059;SDS011;62414;53.436;8.828;2023-05-23T08:56:51;14.30;;;2.30;;
74059;SDS011;62414;53.436;8.828;2023-05-23T08:59:17;14.30;;;2.45;;
74059;SDS011;62414;53.436;8.828;2023-05-23T09:01:43;9.93;;;2.23;;
74059;SDS011;62414;53.436;8.828;2023-05-23T09:04:11;13.75;;;2.90;;
74059;SDS011;62414;53.436;8.828;2023-05-23T09:06:53;12.32;;;2.58;;
74059;SDS011;62414;53.436;8.828;2023-05-23T09:09:19;15.85;;;3.03;;
74059;SDS011;62414;53.436;8.828;2023-05-23T09:11:45;13.60;;;2.60;;
74059;SDS011;62414;53.436;8.828;2023-05-23T09:14:11;15.73;;;3.60;;
74059;SDS011;62414;53.436;8.828;2023-05-23T09:16:37;18.77;;;3.15;;
74059;SDS011;62414;53.436;8.828;2023-05-23T09:19:09;14.20;;;2.60;;
74059;SDS011;62414;53.436;8.828;2023-05-23T09:21:36;15.90;;;2.90;;
74059;SDS011;62414;53.436;8.828;2023-05-23T09:24:12;11.60;;;2.97;;
74059;SDS011;62414;53.436;8.828;2023-05-23T09:26:38;13.52;;;2.60;;
74059;SDS011;62414;53.436;8.828;2023-05-23T09:29:04;12.87;;;2.43;;
74059;SDS011;62414;53.436;8.828;2023-05-23T09:31:30;12.75;;;2.00;;
74059;SDS011;62414;53.436;8.828;2023-05-23T09:33:56;8.32;;;1.85;;
74059;SDS011;62414;53.436;8.828;2023-05-23T09:36:22;9.70;;;1.75;;
74059;SDS011;62414;53.436;8.828;2023-05-23T09:38:48;9.40;;;1.67;;
74059;SDS011;62414;53.436;8.828;2023-05-23T09:41:14;14.03;;;2.43;;
74059;SDS011;62414;53.436;8.828;2023-05-23T09:43:48;12.23;;;1.90;;
74059;SDS011;62414;53.436;8.828;2023-05-23T09:46:14;10.05;;;1.70;;
74059;SDS011;62414;53.436;8.828;2023-05-23T09:48:39;14.00;;;2.27;;
74059;SDS011;62414;53.436;8.828;2023-05-23T09:51:06;14.80;;;2.15;;
74059;SDS011;62414;53.436;8.828;2023-05-23T09:53:33;15.65;;;2.15;;
74059;SDS011;62414;53.436;8.828;2023-05-23T09:55:59;10.07;;;2.80;;
74059;SDS011;62414;53.436;8.828;2023-05-23T09:58:28;11.50;;;2.33;;
74059;SDS011;62414;53.436;8.828;2023-05-23T10:00:55;13.00;;;2.05;;
74059;SDS011;62414;53.436;8.828;2023-05-23T10:03:21;15.65;;;2.35;;
74059;SDS011;62414;53.436;8.828;2023-05-23T10:05:49;11.27;;;2.20;;
74059;SDS011;62414;53.436;8.828;2023-05-23T10:08:18;9.50;;;2.03;;
74059;SDS011;62414;53.436;8.828;2023-05-23T10:13:45;13.60;;;2.25;;
74059;SDS011;62414;53.436;8.828;2023-05-23T10:16:13;8.77;;;2.20;;
74059;SDS011;62414;53.436;8.828;2023-05-23T10:18:42;14.33;;;2.67;;
74059;SDS011;62414;53.436;8.828;2023-05-23T10:21:08;14.32;;;2.22;;
74059;SDS011;62414;53.436;8.828;2023-05-23T10:23:35;9.45;;;2.17;;
74059;SDS011;62414;53.436;8.828;2023-05-23T10:26:01;10.68;;;2.38;;
74059;SDS011;62414;53.436;8.828;2023-05-23T10:28:28;10.05;;;2.28;;
74059;SDS011;62414;53.436;8.828;2023-05-23T10:30:55;10.63;;;1.93;;
74059;SDS011;62414;53.436;8.828;2023-05-23T10:33:20;11.70;;;2.33;;
74059;SDS011;62414;53.436;8.828;2023-05-23T10:35:47;12.03;;;2.30;;
74059;SDS011;62414;53.436;8.828;2023-05-23T10:38:21;11.50;;;2.28;;
74059;SDS011;62414;53.436;8.828;2023-05-23T10:40:54;16.73;;;2.45;;
74059;SDS011;62414;53.436;8.828;2023-05-23T10:43:26;10.77;;;2.40;;
74059;SDS011;62414;53.436;8.828;2023-05-23T10:45:56;15.17;;;2.47;;
74059;SDS011;62414;53.436;8.828;2023-05-23T10:48:30;11.90;;;2.20;;
74059;SDS011;62414;53.436;8.828;2023-05-23T10:51:03;12.05;;;2.67;;
74059;SDS011;62414;53.436;8.828;2023-05-23T10:53:30;13.13;;;2.15;;
74059;SDS011;62414;53.436;8.828;2023-05-23T10:55:56;13.55;;;2.42;;
74059;SDS011;62414;53.436;8.828;2023-05-23T10:58:21;12.83;;;2.53;;
74059;SDS011;62414;53.436;8.828;2023-05-23T11:00:51;15.23;;;2.50;;
74059;SDS011;62414;53.436;8.828;2023-05-23T11:03:18;14.68;;;2.70;;
74059;SDS011;62414;53.436;8.828;2023-05-23T11:05:46;16.48;;;3.20;;
74059;SDS011;62414;53.436;8.828;2023-05-23T11:08:12;14.57;;;2.55;;
74059;SDS011;62414;53.436;8.828;2023-05-23T11:10:50;9.85;;;2.22;;
74059;SDS011;62414;53.436;8.828;2023-05-23T11:13:16;11.93;;;2.47;;
74059;SDS011;62414;53.436;8.828;2023-05-23T11:15:42;11.30;;;2.70;;
74059;SDS011;62414;53.436;8.828;2023-05-23T11:18:08;10.07;;;2.38;;
74059;SDS011;62414;53.436;8.828;2023-05-23T11:20:35;13.67;;;2.50;;
74059;SDS011;62414;53.436;8.828;2023-05-23T11:23:01;14.93;;;2.75;;
74059;SDS011;62414;53.436;8.828;2023-05-23T11:25:40;12.13;;;2.70;;
74059;SDS011;62414;53.436;8.828;2023-05-23T11:28:07;14.50;;;2.65;;
74059;SDS011;62414;53.436;8.828;2023-05-23T11:30:34;16.58;;;2.85;;
74059;SDS011;62414;53.436;8.828;2023-05-23T11:32:59;10.88;;;2.40;;
74059;SDS011;62414;53.436;8.828;2023-05-23T11:35:25;13.57;;;2.80;;
74059;SDS011;62414;53.436;8.828;2023-05-23T11:37:52;16.15;;;2.88;;
74059;SDS011;62414;53.436;8.828;2023-05-23T11:40:26;17.50;;;2.80;;
74059;SDS011;62414;53.436;8.828;2023-05-23T11:42:52;14.55;;;2.83;;
74059;SDS011;62414;53.436;8.828;2023-05-23T11:45:18;13.63;;;3.13;;
74059;SDS011;62414;53.436;8.828;2023-05-23T11:47:44;13.87;;;2.50;;
74059;SDS011;62414;53.436;8.828;2023-05-23T11:50:09;14.03;;;2.60;;
74059;SDS011;62414;53.436;8.828;2023-05-23T11:52:35;8.85;;;2.40;;
74059;SDS011;62414;53.436;8.828;2023-05-23T11:55:02;12.77;;;2.50;;
74059;SDS011;62414;53.436;8.828;2023-05-23T11:57:27;18.23;;;2.65;;
74059;SDS011;62414;53.436;8.828;2023-05-23T11:59:53;16.87;;;2.73;;
74059;SDS011;62414;53.436;8.828;2023-05-23T12:02:19;12.15;;;2.38;;
74059;SDS011;62414;53.436;8.828;2023-05-23T12:04:45;15.32;;;3.17;;
74059;SDS011;62414;53.436;8.828;2023-05-23T12:07:10;14.90;;;2.80;;
74059;SDS011;62414;53.436;8.828;2023-05-23T12:09:42;8.37;;;2.20;;
74059;SDS011;62414;53.436;8.828;2023-05-23T12:12:09;11.93;;;2.20;;
74059;SDS011;62414;53.436;8.828;2023-05-23T12:14:34;16.55;;;3.00;;
74059;SDS011;62414;53.436;8.828;2023-05-23T12:17:00;11.23;;;2.73;;
74059;SDS011;62414;53.436;8.828;2023-05-23T12:19:25;15.80;;;2.43;;
74059;SDS011;62414;53.436;8.828;2023-05-23T12:21:50;13.23;;;2.47;;
74059;SDS011;62414;53.436;8.828;2023-05-23T12:24:16;14.63;;;2.73;;
74059;SDS011;62414;53.436;8.828;2023-05-23T12:26:49;13.63;;;2.50;;
74059;SDS011;62414;53.436;8.828;2023-05-23T12:29:18;14.27;;;2.63;;
74059;SDS011;62414;53.436;8.828;2023-05-23T12:31:47;16.43;;;3.37;;
74059;SDS011;62414;53.436;8.828;2023-05-23T12:34:13;14.35;;;2.42;;
74059;SDS011;62414;53.436;8.828;2023-05-23T12:36:38;14.27;;;2.57;;
74059;SDS011;62414;53.436;8.828;2023-05-23T12:39:04;15.60;;;2.33;;
74059;SDS011;62414;53.436;8.828;2023-05-23T12:41:30;10.43;;;2.43;;
74059;SDS011;62414;53.436;8.828;2023-05-23T12:43:56;14.43;;;3.05;;
74059;SDS011;62414;53.436;8.828;2023-05-23T12:46:23;12.60;;;2.70;;
74059;SDS011;62414;53.436;8.828;2023-05-23T12:48:49;11.32;;;2.65;;
74059;SDS011;62414;53.436;8.828;2023-05-23T12:51:15;15.80;;;3.00;;
74059;SDS011;62414;53.436;8.828;2023-05-23T12:53:41;15.87;;;3.03;;
74059;SDS011;62414;53.436;8.828;2023-05-23T12:56:06;15.02;;;3.45;;
74059;SDS011;62414;53.436;8.828;2023-05-23T12:58:32;15.87;;;3.40;;
74059;SDS011;62414;53.436;8.828;2023-05-23T13:00:57;15.85;;;3.00;;
74059;SDS011;62414;53.436;8.828;2023-05-23T13:03:24;17.10;;;3.60;;
74059;SDS011;62414;53.436;8.828;2023-05-23T13:05:50;15.45;;;3.40;;
74059;SDS011;62414;53.436;8.828;2023-05-23T13:08:15;12.63;;;3.20;;
74059;SDS011;62414;53.436;8.828;2023-05-23T13:10:41;15.40;;;3.40;;
74059;SDS011;62414;53.436;8.828;2023-05-23T13:13:06;17.35;;;3.28;;
74059;SDS011;62414;53.436;8.828;2023-05-23T13:15:31;13.47;;;2.80;;
74059;SDS011;62414;53.436;8.828;2023-05-23T13:17:57;18.83;;;3.20;;
74059;SDS011;62414;53.436;8.828;2023-05-23T13:20:24;12.85;;;2.55;;
74059;SDS011;62414;53.436;8.828;2023-05-23T13:22:49;10.60;;;2.00;;
74059;SDS011;62414;53.436;8.828;2023-05-23T13:25:15;14.75;;;2.50;;
74059;SDS011;62414;53.436;8.828;2023-05-23T13:27:40;15.20;;;2.20;;
74059;SDS011;62414;53.436;8.828;2023-05-23T13:30:06;11.57;;;1.80;;
74059;SDS011;62414;53.436;8.828;2023-05-23T13:32:33;11.13;;;2.00;;
74059;SDS011;62414;53.436;8.828;2023-05-23T13:34:58;13.57;;;2.70;;
74059;SDS011;62414;53.436;8.828;2023-05-23T13:37:25;13.90;;;2.72;;
74059;SDS011;62414;53.436;8.828;2023-05-23T13:39:50;14.27;;;2.40;;
74059;SDS011;62414;53.436;8.828;2023-05-23T13:42:16;13.77;;;2.60;;
74059;SDS011;62414;53.436;8.828;2023-05-23T13:44:41;13.10;;;2.20;;
74059;SDS011;62414;53.436;8.828;2023-05-23T13:47:10;11.30;;;2.00;;
74059;SDS011;62414;53.436;8.828;2023-05-23T13:49:36;11.73;;;2.50;;
74059;SDS011;62414;53.436;8.828;2023-05-23T13:52:02;13.55;;;2.05;;
74059;SDS011;62414;53.436;8.828;2023-05-23T13:54:29;13.33;;;2.33;;
74059;SDS011;62414;53.436;8.828;2023-05-23T13:56:54;13.85;;;2.10;;
74059;SDS011;62414;53.436;8.828;2023-05-23T13:59:19;12.53;;;2.73;;
74059;SDS011;62414;53.436;8.828;2023-05-23T14:01:45;11.60;;;2.40;;
74059;SDS011;62414;53.436;8.828;2023-05-23T14:04:11;15.70;;;2.30;;
74059;SDS011;62414;53.436;8.828;2023-05-23T14:06:36;13.27;;;2.00;;
74059;SDS011;62414;53.436;8.828;2023-05-23T14:09:01;13.90;;;2.20;;
74059;SDS011;62414;53.436;8.828;2023-05-23T14:11:28;21.33;;;2.50;;
74059;SDS011;62414;53.436;8.828;2023-05-23T14:13:54;12.38;;;2.20;;
74059;SDS011;62414;53.436;8.828;2023-05-23T14:16:19;14.03;;;2.20;;
74059;SDS011;62414;53.436;8.828;2023-05-23T14:18:45;12.30;;;2.30;;
74059;SDS011;62414;53.436;8.828;2023-05-23T14:21:10;12.45;;;2.30;;
74059;SDS011;62414;53.436;8.828;2023-05-23T14:23:35;14.83;;;2.67;;
74059;SDS011;62414;53.436;8.828;2023-05-23T14:26:01;17.07;;;2.80;;
74059;SDS011;62414;53.436;8.828;2023-05-23T14:28:28;15.52;;;2.28;;
74059;SDS011;62414;53.436;8.828;2023-05-23T14:30:53;13.83;;;2.13;;
74059;SDS011;62414;53.436;8.828;2023-05-23T14:33:19;17.60;;;2.78;;